Time;durP1;ratioP1;P1;durP2;ratioP2;P2;SDS_P1;SDS_P2;PMS_P1;PMS_P2;Temp;Humidity;BMP_temperature;BMP_pressure;BME280_temperature;BME280_humidity;BME280_pressure;Samples;Min_cycle;Max_cycle;Signal;HPM_P1;HPM_P2
2022/10/24 00:01:47;;;;;;;12.90;4.43;;;14.90;99.90;;;;;;5032213;28;20037;-88
2022/10/24 00:04:12;;;;;;;9.73;3.53;;;14.90;99.90;;;;;;5028644;28;20475;-90
2022/10/24 00:06:40;;;;;;;9.00;3.92;;;14.90;99.90;;;;;;5029287;28;20033;-92
2022/10/24 00:09:06;;;;;;;15.55;4.03;;;14.90;99.90;;;;;;5029141;28;20483;-90
2022/10/24 00:11:32;;;;;;;5.82;3.45;;;14.90;99.90;;;;;;5031293;28;20046;-90
2022/10/24 00:13:58;;;;;;;13.32;3.33;;;15.00;99.90;;;;;;5032019;28;20057;-92
2022/10/24 00:16:25;;;;;;;8.35;3.75;;;14.90;99.90;;;;;;5029733;28;20089;-90
2022/10/24 00:18:51;;;;;;;14.73;4.10;;;14.90;99.90;;;;;;5026381;28;20474;-92
2022/10/24 00:21:17;;;;;;;10.73;3.53;;;14.90;99.90;;;;;;5031060;28;20052;-90
2022/10/24 00:23:43;;;;;;;6.88;3.60;;;14.90;99.90;;;;;;5023934;28;20390;-90
2022/10/24 00:26:10;;;;;;;11.82;3.70;;;14.90;99.90;;;;;;5024640;28;20030;-91
2022/10/24 00:28:37;;;;;;;11.63;3.17;;;14.90;99.90;;;;;;5031588;28;20038;-93
2022/10/24 00:31:05;;;;;;;9.73;3.47;;;14.80;99.90;;;;;;5027690;28;20053;-93
2022/10/24 00:33:30;;;;;;;16.60;4.13;;;14.80;99.90;;;;;;5026839;28;20033;-89
2022/10/24 00:35:56;;;;;;;13.88;3.72;;;14.80;99.90;;;;;;5026162;28;20030;-88
2022/10/24 00:38:22;;;;;;;16.20;4.30;;;14.80;99.90;;;;;;5031278;28;20021;-91
2022/10/24 00:40:47;;;;;;;11.25;3.22;;;14.80;99.90;;;;;;5023706;28;20055;-91
2022/10/24 00:43:18;;;;;;;5.95;3.00;;;14.80;99.90;;;;;;5027697;28;20041;-92
2022/10/24 00:45:56;;;;;;;8.00;3.47;;;14.80;99.90;;;;;;5028196;28;20037;-91
2022/10/24 00:48:49;;;;;;;14.73;3.50;;;14.70;99.90;;;;;;5023861;28;20022;-90
2022/10/24 00:51:17;;;;;;;12.45;3.40;;;14.70;99.90;;;;;;5031649;28;20030;-92
2022/10/24 00:53:49;;;;;;;12.30;4.47;;;14.70;99.90;;;;;;5031910;28;20053;-91
2022/10/24 00:56:19;;;;;;;9.52;3.80;;;14.70;99.90;;;;;;5029033;28;20075;-89
2022/10/24 00:58:46;;;;;;;9.93;4.13;;;14.70;99.90;;;;;;5027282;28;20398;-93
2022/10/24 01:01:12;;;;;;;12.95;3.58;;;14.60;99.90;;;;;;5029146;28;20034;-92
2022/10/24 01:03:37;;;;;;;13.07;4.32;;;14.60;99.90;;;;;;5019203;28;20148;-90
2022/10/24 01:06:30;;;;;;;9.32;4.40;;;14.70;99.90;;;;;;5021084;28;20120;-94
2022/10/24 01:09:01;;;;;;;11.23;3.63;;;14.70;99.90;;;;;;5029661;28;20030;-92
2022/10/24 01:12:08;;;;;;;7.65;3.38;;;14.70;99.90;;;;;;5018365;28;20104;-90
2022/10/24 01:14:49;;;;;;;7.13;3.53;;;14.70;99.90;;;;;;5000137;28;20038;-92
2022/10/24 01:17:38;;;;;;;15.35;5.28;;;14.70;99.90;;;;;;5025185;28;20368;-89
2022/10/24 01:20:32;;;;;;;8.88;4.28;;;14.70;99.90;;;;;;5023743;28;20506;-88
2022/10/24 01:23:32;;;;;;;12.23;4.32;;;14.70;99.90;;;;;;5030764;28;20155;-91
2022/10/24 01:26:10;;;;;;;13.35;4.20;;;14.70;99.90;;;;;;5028541;28;20037;-92
2022/10/24 01:28:54;;;;;;;10.70;5.00;;;14.60;99.90;;;;;;5031454;28;20463;-90
2022/10/24 01:31:38;;;;;;;12.48;4.90;;;14.70;99.90;;;;;;5026364;28;20428;-89
2022/10/24 01:34:16;;;;;;;11.85;5.03;;;14.60;99.90;;;;;;5022591;28;20033;-91
2022/10/24 01:37:04;;;;;;;10.02;4.35;;;14.60;99.90;;;;;;5022290;28;20124;-90
2022/10/24 01:39:35;;;;;;;16.38;4.78;;;14.60;99.90;;;;;;5016564;28;20038;-89
2022/10/24 01:42:03;;;;;;;14.23;4.65;;;14.60;99.90;;;;;;5026959;28;20414;-92
2022/10/24 01:44:38;;;;;;;15.02;5.45;;;14.70;99.90;;;;;;5029953;28;20060;-94
2022/10/24 01:47:20;;;;;;;7.88;4.55;;;14.60;99.90;;;;;;5031418;28;20490;-94
2022/10/24 01:49:52;;;;;;;17.25;4.28;;;14.60;99.90;;;;;;5027343;28;20455;-88
2022/10/24 01:52:19;;;;;;;12.50;4.18;;;14.60;99.90;;;;;;5027256;28;20065;-91
2022/10/24 01:54:46;;;;;;;12.73;4.32;;;14.60;99.90;;;;;;5023882;28;20048;-91
2022/10/24 01:57:13;;;;;;;11.75;3.70;;;14.60;99.90;;;;;;5018498;28;20044;-91
2022/10/24 01:59:45;;;;;;;17.27;4.18;;;14.70;99.90;;;;;;5029432;28;20028;-94
2022/10/24 02:02:20;;;;;;;11.85;3.78;;;14.70;99.90;;;;;;5026282;28;20038;-91
2022/10/24 02:04:54;;;;;;;12.88;4.22;;;14.60;99.90;;;;;;5026061;28;20038;-90
2022/10/24 02:07:22;;;;;;;11.57;4.28;;;14.60;99.90;;;;;;5021595;28;20478;-91
2022/10/24 02:09:52;;;;;;;19.25;4.75;;;14.70;99.90;;;;;;5012033;28;20040;-91
2022/10/24 02:12:19;;;;;;;16.38;4.97;;;14.70;99.90;;;;;;5028712;28;20049;-91
2022/10/24 02:14:50;;;;;;;9.77;4.85;;;14.60;99.90;;;;;;5020980;28;20121;-90
2022/10/24 02:17:16;;;;;;;7.10;4.25;;;14.60;99.90;;;;;;5022750;28;20537;-89
2022/10/24 02:19:43;;;;;;;12.77;5.03;;;14.60;99.90;;;;;;5021316;28;20471;-92
2022/10/24 02:22:24;;;;;;;11.90;4.35;;;14.60;99.90;;;;;;5025781;28;20029;-93
2022/10/24 02:25:06;;;;;;;17.65;4.65;;;14.60;99.90;;;;;;5027441;28;20243;-89
2022/10/24 02:27:40;;;;;;;23.88;5.57;;;14.50;99.90;;;;;;5026814;28;20164;-90
2022/10/24 02:30:18;;;;;;;16.45;5.47;;;14.50;99.90;;;;;;5024220;28;20059;-92
2022/10/24 02:32:50;;;;;;;11.63;4.03;;;14.50;99.90;;;;;;5021443;28;20049;-92
2022/10/24 02:35:21;;;;;;;15.18;4.20;;;14.50;99.90;;;;;;5022744;28;20025;-88
2022/10/24 02:37:50;;;;;;;11.45;4.60;;;14.50;99.90;;;;;;5019524;28;20034;-87
2022/10/24 02:40:19;;;;;;;11.40;4.82;;;14.50;99.90;;;;;;5028133;28;20117;-91
2022/10/24 02:42:48;;;;;;;9.02;3.63;;;14.50;99.90;;;;;;5022918;28;20116;-88
2022/10/24 02:45:15;;;;;;;14.20;4.53;;;14.50;99.90;;;;;;5030535;28;20034;-91
2022/10/24 02:47:43;;;;;;;14.00;3.92;;;14.60;99.90;;;;;;5021185;28;20034;-93
2022/10/24 02:50:09;;;;;;;8.40;3.97;;;14.50;99.90;;;;;;5028238;28;20083;-93
2022/10/24 02:52:37;;;;;;;15.65;4.00;;;14.50;99.90;;;;;;5025824;28;20045;-94
2022/10/24 02:55:04;;;;;;;11.05;3.88;;;14.50;99.90;;;;;;5023019;28;20087;-93
2022/10/24 02:57:29;;;;;;;16.50;5.00;;;14.50;99.90;;;;;;5020726;28;20490;-91
2022/10/24 02:59:55;;;;;;;12.00;4.25;;;14.50;99.90;;;;;;5027380;28;20025;-92
2022/10/24 03:02:21;;;;;;;10.52;4.32;;;14.50;99.90;;;;;;5026572;28;20021;-89
2022/10/24 03:04:47;;;;;;;14.80;4.57;;;14.50;99.90;;;;;;5022764;28;20075;-88
2022/10/24 03:07:13;;;;;;;11.43;3.88;;;14.50;99.90;;;;;;5025753;28;20033;-93
2022/10/24 03:09:38;;;;;;;13.35;3.85;;;14.50;99.90;;;;;;5011260;28;20112;-91
2022/10/24 03:12:04;;;;;;;9.10;3.63;;;14.50;99.90;;;;;;5026085;28;20060;-92
2022/10/24 03:14:30;;;;;;;15.48;3.97;;;14.60;99.90;;;;;;5028443;28;20033;-91
2022/10/24 03:16:56;;;;;;;12.98;3.50;;;14.50;99.90;;;;;;5021086;28;20036;-91
2022/10/24 03:19:21;;;;;;;10.45;3.63;;;14.50;99.90;;;;;;5013083;28;20422;-92
2022/10/24 03:21:47;;;;;;;14.82;3.88;;;14.50;99.90;;;;;;5018018;28;20112;-90
2022/10/24 03:24:13;;;;;;;12.23;3.75;;;14.50;99.90;;;;;;5026708;28;20038;-92
2022/10/24 03:26:38;;;;;;;9.90;4.32;;;14.40;99.90;;;;;;5019531;28;20032;-92
2022/10/24 03:29:04;;;;;;;15.20;4.63;;;14.40;99.90;;;;;;5026816;28;20061;-91
2022/10/24 03:31:30;;;;;;;13.75;4.15;;;14.50;99.90;;;;;;5016450;28;20061;-91
2022/10/24 03:33:56;;;;;;;18.23;3.72;;;14.50;99.90;;;;;;5028777;28;20032;-91
2022/10/24 03:36:22;;;;;;;13.48;4.43;;;14.50;99.90;;;;;;5021704;28;20026;-90
2022/10/24 03:38:48;;;;;;;13.55;3.67;;;14.50;99.90;;;;;;5026066;28;20035;-90
2022/10/24 03:41:13;;;;;;;12.18;3.85;;;14.40;99.90;;;;;;5021719;28;20033;-89
2022/10/24 03:43:39;;;;;;;12.27;4.15;;;14.50;99.90;;;;;;5020999;28;20578;-92
2022/10/24 03:46:05;;;;;;;12.55;3.80;;;14.40;99.90;;;;;;5019788;28;20030;-92
2022/10/24 03:48:30;;;;;;;10.52;3.50;;;14.40;99.90;;;;;;5019633;28;20493;-91
2022/10/24 03:50:56;;;;;;;9.85;3.60;;;14.40;99.90;;;;;;5018744;28;20057;-89
2022/10/24 03:53:22;;;;;;;13.15;3.42;;;14.40;99.90;;;;;;5023622;28;20100;-90
2022/10/24 03:55:47;;;;;;;7.50;3.60;;;14.40;99.90;;;;;;5023159;28;20040;-92
2022/10/24 03:58:13;;;;;;;6.25;3.15;;;14.40;99.90;;;;;;5029541;28;20068;-93
2022/10/24 04:00:39;;;;;;;11.10;4.25;;;14.50;99.90;;;;;;5021486;28;20368;-91
2022/10/24 04:03:05;;;;;;;16.60;4.22;;;14.40;99.90;;;;;;5025266;28;20025;-89
2022/10/24 04:05:31;;;;;;;21.77;5.20;;;14.40;99.90;;;;;;5024783;28;20022;-89
2022/10/24 04:07:57;;;;;;;10.30;3.53;;;14.40;99.90;;;;;;5021422;28;20052;-92
2022/10/24 04:10:22;;;;;;;11.15;4.18;;;14.40;99.90;;;;;;5019144;28;20107;-90
2022/10/24 04:12:48;;;;;;;13.77;4.13;;;14.40;99.90;;;;;;5017927;28;20169;-91
2022/10/24 04:15:14;;;;;;;8.65;3.72;;;14.40;99.90;;;;;;5024905;28;20470;-92
2022/10/24 04:17:39;;;;;;;19.73;4.38;;;14.40;99.90;;;;;;5025268;28;20037;-91
2022/10/24 04:20:06;;;;;;;9.88;4.15;;;14.40;99.90;;;;;;5026341;28;20037;-90
2022/10/24 04:22:31;;;;;;;15.40;4.22;;;14.40;99.90;;;;;;5028247;28;20100;-89
2022/10/24 04:24:57;;;;;;;12.52;3.95;;;14.40;99.90;;;;;;5022612;28;20053;-91
2022/10/24 04:27:22;;;;;;;16.98;4.80;;;14.30;99.90;;;;;;5031110;28;20037;-90
2022/10/24 04:29:48;;;;;;;10.52;3.95;;;14.30;99.90;;;;;;5031533;28;20033;-92
2022/10/24 04:32:14;;;;;;;8.00;3.58;;;14.40;99.90;;;;;;5030288;28;20064;-92
2022/10/24 04:34:39;;;;;;;14.32;4.00;;;14.30;99.90;;;;;;5029553;28;20033;-91
2022/10/24 04:37:05;;;;;;;9.00;3.88;;;14.40;99.90;;;;;;5025648;28;20410;-90
2022/10/24 04:39:31;;;;;;;18.40;4.95;;;14.40;99.90;;;;;;5025677;28;20053;-92
2022/10/24 04:41:56;;;;;;;20.42;4.28;;;14.40;99.90;;;;;;5026946;28;20474;-92
2022/10/24 04:44:22;;;;;;;11.05;4.43;;;14.40;99.90;;;;;;5024465;28;20060;-93
2022/10/24 04:46:49;;;;;;;15.00;4.50;;;14.40;99.90;;;;;;5026895;28;20033;-91
2022/10/24 04:49:15;;;;;;;21.48;4.47;;;14.30;99.90;;;;;;5029674;28;20026;-90
2022/10/24 04:51:41;;;;;;;19.40;4.50;;;14.30;99.90;;;;;;5028257;28;20037;-93
2022/10/24 04:54:07;;;;;;;18.13;5.20;;;14.40;99.90;;;;;;5025502;28;20075;-94
2022/10/24 04:56:33;;;;;;;18.83;4.03;;;14.30;99.90;;;;;;5022653;28;20387;-93
2022/10/24 04:58:58;;;;;;;15.00;4.55;;;14.40;99.90;;;;;;5031549;28;20029;-93
2022/10/24 05:01:24;;;;;;;15.38;4.28;;;14.40;99.90;;;;;;5023133;28;20033;-92
2022/10/24 05:03:50;;;;;;;11.00;4.75;;;14.40;99.90;;;;;;5022846;28;20040;-93
2022/10/24 05:06:15;;;;;;;22.00;4.57;;;14.40;99.90;;;;;;5025483;28;20021;-90
2022/10/24 05:08:41;;;;;;;19.70;5.22;;;14.40;99.90;;;;;;5023582;28;20033;-89
2022/10/24 05:11:10;;;;;;;14.23;4.47;;;14.40;99.90;;;;;;5027310;28;20042;-93
2022/10/24 05:13:36;;;;;;;9.85;3.85;;;14.40;99.90;;;;;;5029918;28;20076;-90
2022/10/24 05:16:01;;;;;;;16.63;4.32;;;14.40;99.90;;;;;;5025021;28;20104;-96
2022/10/24 05:18:27;;;;;;;15.70;5.03;;;14.40;99.90;;;;;;5019215;28;20025;-91
2022/10/24 05:20:56;;;;;;;10.98;3.65;;;14.40;99.90;;;;;;5022126;28;20033;-92
2022/10/24 05:23:22;;;;;;;13.80;4.55;;;14.40;99.90;;;;;;5021318;28;20299;-92
2022/10/24 05:25:47;;;;;;;31.75;5.43;;;14.40;99.90;;;;;;5003681;28;20026;-90
2022/10/24 05:28:13;;;;;;;15.02;4.40;;;14.40;99.90;;;;;;5019099;28;20034;-89
2022/10/24 05:30:38;;;;;;;16.10;5.38;;;14.40;99.90;;;;;;5020925;28;20033;-90
2022/10/24 05:33:04;;;;;;;12.85;4.32;;;14.50;99.90;;;;;;5013787;28;20038;-90
2022/10/24 05:35:30;;;;;;;12.43;3.67;;;14.40;99.90;;;;;;5002718;28;20041;-90
2022/10/24 05:37:55;;;;;;;22.17;4.10;;;14.40;99.90;;;;;;5016072;28;20037;-92
2022/10/24 05:40:21;;;;;;;19.25;4.72;;;14.40;99.90;;;;;;5022000;28;20029;-90
2022/10/24 05:42:47;;;;;;;16.10;4.43;;;14.50;99.90;;;;;;5026728;28;20504;-89
2022/10/24 05:45:13;;;;;;;19.92;4.10;;;14.50;99.90;;;;;;5020426;28;20040;-93
2022/10/24 05:47:38;;;;;;;28.67;6.50;;;14.50;99.90;;;;;;5021124;28;20030;-90
2022/10/24 05:50:05;;;;;;;17.83;4.55;;;14.50;99.90;;;;;;5027180;28;20036;-92
2022/10/24 05:52:30;;;;;;;16.90;5.25;;;14.50;99.90;;;;;;5018312;28;20034;-89
2022/10/24 05:54:56;;;;;;;23.95;4.20;;;14.60;99.90;;;;;;5019169;28;20029;-91
2022/10/24 05:57:22;;;;;;;20.63;5.07;;;14.60;99.90;;;;;;5023923;28;20033;-91
2022/10/24 05:59:47;;;;;;;26.17;4.80;;;14.60;99.90;;;;;;5027417;28;20378;-90
2022/10/24 06:02:18;;;;;;;13.32;4.25;;;14.60;99.90;;;;;;5017253;28;20041;-91
2022/10/24 06:04:44;;;;;;;22.17;5.10;;;14.60;99.90;;;;;;5011153;28;21279;-91
2022/10/24 06:07:10;;;;;;;14.75;4.70;;;14.60;99.90;;;;;;5020952;28;20126;-91
2022/10/24 06:09:36;;;;;;;13.88;4.28;;;14.60;99.90;;;;;;5026660;28;20129;-89
2022/10/24 06:12:01;;;;;;;13.68;4.22;;;14.60;99.90;;;;;;5000721;28;20054;-92
2022/10/24 06:14:27;;;;;;;18.75;4.47;;;14.60;99.90;;;;;;5015641;28;20038;-86
2022/10/24 06:16:52;;;;;;;17.85;4.43;;;14.60;99.90;;;;;;5022500;28;20663;-93
2022/10/24 06:19:20;;;;;;;25.73;5.53;;;14.60;99.90;;;;;;5014614;28;20053;-90
2022/10/24 06:21:47;;;;;;;15.52;5.07;;;14.60;99.90;;;;;;5017631;28;20037;-93
2022/10/24 06:24:13;;;;;;;20.30;4.53;;;14.60;99.90;;;;;;5025558;28;20033;-92
2022/10/24 06:26:38;;;;;;;23.05;4.55;;;14.60;99.90;;;;;;5025737;28;20022;-93
2022/10/24 06:29:04;;;;;;;14.52;4.15;;;14.60;99.90;;;;;;5029956;28;20032;-92
2022/10/24 06:31:29;;;;;;;20.92;4.63;;;14.60;99.90;;;;;;5026968;28;20399;-91
2022/10/24 06:33:55;;;;;;;14.82;3.85;;;14.60;99.90;;;;;;5029314;28;20232;-92
2022/10/24 06:36:21;;;;;;;16.60;3.70;;;14.70;99.90;;;;;;5018833;28;20041;-90
2022/10/24 06:38:47;;;;;;;17.30;4.15;;;14.60;99.90;;;;;;5027088;28;20455;-95
2022/10/24 06:41:15;;;;;;;19.08;3.72;;;14.60;99.90;;;;;;5018753;28;20061;-92
2022/10/24 06:43:41;;;;;;;19.45;4.50;;;14.60;99.90;;;;;;5026200;28;20093;-93
2022/10/24 06:46:15;;;;;;;15.55;3.67;;;14.70;99.90;;;;;;5025954;28;20514;-92
2022/10/24 06:48:41;;;;;;;21.38;4.50;;;14.60;99.90;;;;;;5027130;28;20025;-91
2022/10/24 06:51:07;;;;;;;18.77;4.53;;;14.60;99.90;;;;;;5002230;28;20036;-92
2022/10/24 06:53:33;;;;;;;13.25;4.15;;;14.70;99.90;;;;;;5024420;28;20037;-88
2022/10/24 06:56:04;;;;;;;20.50;4.55;;;14.70;99.90;;;;;;5029217;28;20033;-92
2022/10/24 06:58:31;;;;;;;16.80;3.88;;;14.80;99.90;;;;;;5020510;28;20539;-91
2022/10/24 07:00:57;;;;;;;14.48;4.57;;;14.80;99.90;;;;;;5021073;28;20438;-90
2022/10/24 07:03:22;;;;;;;13.80;3.72;;;14.80;99.90;;;;;;5027702;28;20029;-92
2022/10/24 07:05:48;;;;;;;31.70;4.47;;;14.80;99.90;;;;;;5020643;28;20034;-92
2022/10/24 07:08:14;;;;;;;16.42;4.45;;;14.80;99.90;;;;;;5021550;28;20033;-92
2022/10/24 07:10:39;;;;;;;19.63;4.53;;;14.80;99.90;;;;;;5029621;28;20050;-91
2022/10/24 07:13:05;;;;;;;25.98;4.15;;;14.90;99.90;;;;;;5021027;28;20037;-90
2022/10/24 07:15:30;;;;;;;17.00;3.50;;;14.90;99.90;;;;;;5022287;28;20017;-87
2022/10/24 07:17:56;;;;;;;22.92;3.83;;;15.00;99.90;;;;;;5023173;28;20061;-91
2022/10/24 07:20:22;;;;;;;22.50;4.40;;;14.90;99.90;;;;;;5018415;28;20021;-92
2022/10/24 07:22:47;;;;;;;12.90;3.75;;;15.00;99.90;;;;;;5021113;28;20052;-93
2022/10/24 07:25:13;;;;;;;20.08;4.57;;;15.00;99.90;;;;;;5022210;28;20471;-94
2022/10/24 07:27:39;;;;;;;13.25;3.55;;;15.10;99.90;;;;;;5022458;28;20029;-87
2022/10/24 07:30:07;;;;;;;20.60;3.88;;;15.10;99.90;;;;;;5021832;28;20036;-88
2022/10/24 07:32:33;;;;;;;23.40;4.47;;;15.10;99.90;;;;;;5021162;28;20037;-88
2022/10/24 07:34:58;;;;;;;15.25;4.15;;;15.10;99.90;;;;;;5019652;28;20533;-91
2022/10/24 07:37:24;;;;;;;15.88;4.03;;;15.00;99.90;;;;;;5015508;28;20038;-93
2022/10/24 07:39:50;;;;;;;15.68;3.67;;;15.10;99.90;;;;;;5020202;28;20384;-93
2022/10/24 07:42:17;;;;;;;9.52;3.72;;;15.00;99.90;;;;;;5022981;28;20550;-93
2022/10/24 07:44:43;;;;;;;15.95;3.67;;;15.00;99.90;;;;;;5025515;28;20033;-91
2022/10/24 07:47:10;;;;;;;21.40;3.95;;;15.00;99.90;;;;;;5020487;28;20380;-93
2022/10/24 07:49:37;;;;;;;13.40;5.03;;;15.00;99.90;;;;;;5009049;28;20053;-94
2022/10/24 07:52:03;;;;;;;16.38;3.85;;;15.10;99.90;;;;;;5026793;28;20487;-94
2022/10/24 07:54:28;;;;;;;13.82;4.47;;;15.10;99.90;;;;;;5028127;28;20030;-95
2022/10/24 07:56:54;;;;;;;18.58;3.78;;;15.10;99.90;;;;;;5029539;28;20033;-92
2022/10/24 07:59:20;;;;;;;17.80;4.13;;;15.10;99.90;;;;;;5032147;28;20022;-92
2022/10/24 08:01:45;;;;;;;18.08;3.97;;;15.10;99.90;;;;;;5025048;28;20086;-92
2022/10/24 08:04:12;;;;;;;16.75;4.03;;;15.00;99.90;;;;;;5013462;28;20041;-93
2022/10/24 08:06:39;;;;;;;15.52;3.35;;;15.10;99.90;;;;;;5028840;28;20060;-91
2022/10/24 08:09:05;;;;;;;12.38;3.13;;;15.20;99.90;;;;;;5024596;28;20034;-92
2022/10/24 08:11:31;;;;;;;19.13;3.45;;;15.20;99.90;;;;;;5014872;28;20049;-88
2022/10/24 08:13:57;;;;;;;12.10;3.53;;;15.20;99.90;;;;;;5025303;28;20037;-94
2022/10/24 08:16:25;;;;;;;18.15;4.13;;;15.20;99.90;;;;;;5024334;28;20556;-95
2022/10/24 08:18:52;;;;;;;22.02;3.42;;;15.20;99.90;;;;;;5015404;28;20494;-90
2022/10/24 08:21:20;;;;;;;15.43;3.47;;;15.30;99.90;;;;;;5029021;28;20049;-90
2022/10/24 08:23:48;;;;;;;17.85;3.47;;;15.30;99.90;;;;;;5022117;28;20030;-87
2022/10/24 08:26:17;;;;;;;13.45;3.70;;;15.40;99.90;;;;;;5019039;28;20111;-95
2022/10/24 08:28:45;;;;;;;19.13;4.07;;;15.40;99.90;;;;;;5024281;28;20030;-93
2022/10/24 08:31:17;;;;;;;17.52;3.47;;;15.40;99.90;;;;;;5016648;28;20033;-92
2022/10/24 08:33:42;;;;;;;24.77;2.65;;;15.40;99.90;;;;;;5023190;28;20033;-93
2022/10/24 08:36:19;;;;;;;23.95;5.35;;;15.50;99.90;;;;;;5023654;28;20033;-95
2022/10/24 08:38:45;;;;;;;28.48;4.63;;;15.40;99.90;;;;;;5030156;28;20029;-90
2022/10/24 08:41:20;;;;;;;16.40;3.38;;;15.50;99.90;;;;;;5027500;28;20025;-95
2022/10/24 08:43:46;;;;;;;17.80;3.58;;;15.50;99.90;;;;;;5024958;28;20088;-92
2022/10/24 08:46:49;;;;;;;17.50;3.67;;;15.50;99.90;;;;;;5032920;28;20033;-91
2022/10/24 08:49:29;;;;;;;20.58;3.67;;;15.50;99.90;;;;;;5000994;28;20336;-96
2022/10/24 08:52:26;;;;;;;24.30;3.70;;;15.50;99.90;;;;;;5022957;28;20099;-93
2022/10/24 08:54:54;;;;;;;18.13;3.67;;;15.60;99.90;;;;;;5022277;28;20029;-93
2022/10/24 08:57:26;;;;;;;17.10;3.13;;;15.60;99.90;;;;;;5018327;28;20101;-92
2022/10/24 08:59:57;;;;;;;11.05;3.25;;;15.60;99.90;;;;;;5028003;28;20120;-93
2022/10/24 09:02:25;;;;;;;19.48;3.58;;;15.70;99.90;;;;;;5013156;28;20038;-95
2022/10/24 09:05:24;;;;;;;16.38;3.88;;;15.70;99.90;;;;;;5029980;28;20029;-94
2022/10/24 09:08:04;;;;;;;13.60;3.55;;;15.70;99.90;;;;;;5012318;28;20034;-89
2022/10/24 09:10:45;;;;;;;12.13;3.03;;;15.70;99.90;;;;;;5031241;28;20099;-93
2022/10/24 09:13:15;;;;;;;21.38;3.80;;;15.70;99.90;;;;;;5029224;28;20052;-94
2022/10/24 09:15:44;;;;;;;16.23;3.70;;;15.70;99.90;;;;;;5025723;28;20116;-91
2022/10/24 09:18:28;;;;;;;12.65;4.00;;;15.70;99.90;;;;;;5031489;28;20033;-92
2022/10/24 09:20:53;;;;;;;13.77;3.22;;;15.70;99.90;;;;;;5021046;28;20025;-93
2022/10/24 09:23:22;;;;;;;13.88;4.20;;;15.80;99.90;;;;;;5021605;28;20028;-94
2022/10/24 09:25:51;;;;;;;27.75;5.30;;;15.80;99.90;;;;;;5024191;28;20034;-93
2022/10/24 09:28:18;;;;;;;15.05;3.97;;;15.90;99.90;;;;;;5018690;28;20033;-92
2022/10/24 09:30:43;;;;;;;12.32;3.22;;;16.00;99.90;;;;;;5028342;28;20040;-94
2022/10/24 09:33:21;;;;;;;18.55;3.25;;;16.00;99.90;;;;;;5018878;28;20037;-95
2022/10/24 09:35:50;;;;;;;10.90;3.15;;;16.10;99.90;;;;;;5023023;28;20029;-91
2022/10/24 09:38:26;;;;;;;15.20;3.25;;;16.10;99.90;;;;;;5028019;28;20030;-89
2022/10/24 09:40:57;;;;;;;13.27;3.58;;;16.10;99.90;;;;;;5026253;28;20489;-93
2022/10/24 09:43:33;;;;;;;30.75;3.67;;;16.10;99.90;;;;;;5023820;28;20033;-91
2022/10/24 09:46:08;;;;;;;19.05;3.45;;;16.20;99.90;;;;;;5030894;28;20098;-91
2022/10/24 09:48:37;;;;;;;;;;;16.20;99.90;;;;;;5025756;28;20038;-91
2022/10/24 09:51:03;;;;;;;17.40;3.22;;;16.30;99.90;;;;;;5021938;28;20425;-89
2022/10/24 09:53:33;;;;;;;12.35;3.92;;;16.30;99.90;;;;;;5021126;28;20069;-90
2022/10/24 09:56:13;;;;;;;22.90;3.97;;;16.40;99.90;;;;;;5029100;28;20034;-92
2022/10/24 09:58:40;;;;;;;21.58;3.80;;;16.50;99.90;;;;;;5027231;28;20488;-93
2022/10/24 10:01:21;;;;;;;27.02;3.75;;;16.60;99.90;;;;;;5016176;28;20479;-91
2022/10/24 10:04:02;;;;;;;18.58;3.53;;;16.70;99.90;;;;;;5026524;28;20025;-90
2022/10/24 10:06:28;;;;;;;15.32;3.20;;;16.80;99.90;;;;;;5026141;28;20112;-92
2022/10/24 10:08:56;;;;;;;23.88;3.85;;;16.70;99.90;;;;;;5024973;28;20558;-93
2022/10/24 10:11:30;;;;;;;22.27;4.05;;;16.80;99.90;;;;;;5018736;28;20048;-91
2022/10/24 10:13:58;;;;;;;18.02;3.45;;;16.90;99.90;;;;;;5025576;28;20080;-94
2022/10/24 10:16:35;;;;;;;15.10;3.53;;;16.90;99.90;;;;;;5025492;28;20124;-92
2022/10/24 10:19:14;;;;;;;16.38;3.97;;;16.90;99.90;;;;;;5023755;28;20104;-92
2022/10/24 10:21:52;;;;;;;30.27;3.70;;;16.90;99.90;;;;;;5005562;28;20120;-90
2022/10/24 10:24:40;;;;;;;20.65;3.75;;;17.00;99.90;;;;;;4997671;28;20725;-91
2022/10/24 10:27:31;;;;;;;16.70;3.22;;;17.00;99.90;;;;;;5028326;28;20033;-93
2022/10/24 10:30:16;;;;;;;19.08;4.65;;;17.00;99.90;;;;;;5031507;28;20382;-93
2022/10/24 10:33:20;;;;;;;17.33;3.47;;;17.00;99.90;;;;;;5016925;28;20076;-94
2022/10/24 10:36:02;;;;;;;18.20;3.30;;;17.10;99.90;;;;;;5020514;28;20110;-94
2022/10/24 10:38:46;;;;;;;35.25;10.02;;;17.10;99.90;;;;;;5015789;28;20028;-95
2022/10/24 10:41:30;;;;;;;19.27;4.70;;;17.10;99.90;;;;;;5022411;28;20047;-93
2022/10/24 10:44:23;;;;;;;19.08;3.78;;;17.10;99.90;;;;;;5001061;28;20030;-93
2022/10/24 10:47:19;;;;;;;30.65;3.78;;;17.20;99.90;;;;;;5019490;28;20372;-90
2022/10/24 10:49:49;;;;;;;10.95;3.08;;;17.20;99.90;;;;;;5012294;28;20053;-91
2022/10/24 10:52:23;;;;;;;10.38;3.15;;;17.40;99.90;;;;;;5021525;28;20530;-91
2022/10/24 10:55:05;;;;;;;17.75;3.17;;;17.40;99.90;;;;;;5021752;28;20112;-94
2022/10/24 10:57:53;;;;;;;17.80;2.97;;;17.40;99.90;;;;;;5024905;28;20489;-90
2022/10/24 11:00:21;;;;;;;17.88;3.67;;;17.30;99.90;;;;;;5020446;28;20351;-92
2022/10/24 11:03:15;;;;;;;24.58;3.80;;;17.30;99.90;;;;;;5015208;28;20026;-88
2022/10/24 11:05:49;;;;;;;25.50;3.40;;;17.40;99.90;;;;;;5023801;28;20112;-93
2022/10/24 11:08:40;;;;;;;18.08;3.55;;;17.40;99.90;;;;;;5010801;28;20395;-93
2022/10/24 11:11:15;;;;;;;15.40;3.78;;;17.40;99.90;;;;;;5012401;28;20050;-93
2022/10/24 11:14:09;;;;;;;12.73;2.97;;;17.50;99.90;;;;;;5019929;28;20046;-93
2022/10/24 11:16:36;;;;;;;18.17;4.55;;;17.60;99.90;;;;;;5025816;28;20034;-89
2022/10/24 11:19:20;;;;;;;12.38;3.03;;;17.60;99.90;;;;;;5021164;28;20056;-92
2022/10/24 11:21:46;;;;;;;12.15;3.13;;;17.60;99.90;;;;;;5024004;28;20120;-90
2022/10/24 11:24:17;;;;;;;13.98;3.10;;;17.80;99.90;;;;;;5019651;28;20494;-91
2022/10/24 11:27:00;;;;;;;14.95;3.25;;;17.80;99.90;;;;;;5026699;28;20030;-94
2022/10/24 11:29:44;;;;;;;19.33;2.83;;;17.90;99.90;;;;;;5023672;28;20390;-93
2022/10/24 11:32:33;;;;;;;16.98;3.03;;;17.90;99.90;;;;;;5022750;28;20073;-92
2022/10/24 11:35:39;;;;;;;23.00;3.72;;;18.00;99.90;;;;;;5025919;28;20037;-90
2022/10/24 11:38:19;;;;;;;18.73;3.08;;;18.00;99.90;;;;;;5006128;28;20471;-92
2022/10/24 11:40:49;;;;;;;15.80;2.85;;;18.10;99.90;;;;;;5020195;28;20444;-91
2022/10/24 11:43:17;;;;;;;24.55;3.47;;;18.20;99.90;;;;;;5018062;28;20037;-90
2022/10/24 11:45:50;;;;;;;15.52;3.35;;;18.30;99.90;;;;;;5022800;28;20553;-94
2022/10/24 11:48:27;;;;;;;16.77;2.78;;;18.40;99.90;;;;;;5019646;28;20034;-90
2022/10/24 11:51:12;;;;;;;13.27;2.45;;;18.40;99.90;;;;;;5021233;28;20026;-92
2022/10/24 11:53:38;;;;;;;9.15;3.00;;;18.50;99.90;;;;;;5022856;28;20099;-93
2022/10/24 11:56:10;;;;;;;11.90;2.58;;;18.50;99.90;;;;;;5021575;28;20038;-91
2022/10/24 11:58:53;;;;;;;16.70;2.88;;;18.50;99.90;;;;;;5022812;28;20033;-95
2022/10/24 12:01:40;;;;;;;15.55;2.95;;;18.40;99.90;;;;;;5021701;28;20471;-90
2022/10/24 12:04:28;;;;;;;11.50;3.10;;;18.30;99.90;;;;;;5022818;28;20483;-94
2022/10/24 12:07:22;;;;;;;22.25;3.00;;;18.30;99.90;;;;;;5017970;28;20037;-89
2022/10/24 12:10:03;;;;;;;6.55;2.08;;;18.30;99.90;;;;;;5015186;28;20091;-92
2022/10/24 12:13:07;;;;;;;10.60;1.98;;;18.30;99.90;;;;;;5020683;28;20387;-92
2022/10/24 12:16:03;;;;;;;10.70;2.45;;;18.30;99.90;;;;;;5020091;28;20060;-92
2022/10/24 12:18:31;;;;;;;14.15;3.03;;;18.40;99.90;;;;;;5018263;28;20029;-91
2022/10/24 12:21:03;;;;;;;18.48;3.40;;;18.60;99.90;;;;;;5020066;28;20490;-92
2022/10/24 12:23:30;;;;;;;19.33;2.97;;;18.70;99.90;;;;;;5018000;28;20030;-92
2022/10/24 12:26:18;;;;;;;15.75;2.67;;;18.80;99.90;;;;;;5003514;28;20120;-91
2022/10/24 12:28:58;;;;;;;12.57;2.47;;;18.90;99.90;;;;;;5017467;28;20045;-92
2022/10/24 12:31:30;;;;;;;9.40;2.33;;;19.00;99.90;;;;;;5029187;28;20487;-91
2022/10/24 12:34:14;;;;;;;11.13;2.45;;;19.00;99.90;;;;;;5023292;28;20049;-89
2022/10/24 12:37:29;;;;;;;11.32;2.13;;;19.00;99.90;;;;;;5028565;28;20482;-92
2022/10/24 12:39:56;;;;;;;22.10;3.85;;;19.10;99.90;;;;;;5021002;28;20109;-93
2022/10/24 12:42:21;;;;;;;20.95;3.20;;;19.10;99.90;;;;;;5033242;28;20040;-93
2022/10/24 12:44:49;;;;;;;11.88;2.60;;;19.20;99.90;;;;;;5016228;28;20022;-92
2022/10/24 12:47:28;;;;;;;15.02;3.72;;;19.10;99.90;;;;;;5030623;28;20034;-92
2022/10/24 12:49:55;;;;;;;10.68;3.28;;;19.20;99.90;;;;;;5027722;28;20368;-91
2022/10/24 12:52:47;;;;;;;11.75;2.60;;;19.20;99.90;;;;;;5033112;28;20029;-93
2022/10/24 12:55:35;;;;;;;15.52;2.13;;;19.20;99.90;;;;;;4996570;28;20045;-93
2022/10/24 12:58:02;;;;;;;10.80;2.33;;;19.10;99.90;;;;;;5025014;28;20112;-87
2022/10/24 13:00:30;;;;;;;19.85;2.90;;;19.00;99.90;;;;;;5026368;28;20064;-93